Alturas, California
Current Conditions -  °F | °C
As of 4:55 AM on Saturday 01 Nov 2014 (Local Time) from KAAT Reporting Station
Light Rain Light Rain  
Wind Chill: 33°   Ceiling: 2000
Heat Index: 39°   Visibility: 8mi
Dew Point: 36°   Wind: 8mph
Humidity: 89%   Direction: 340°NNW
Pressure: 29.66"   Gusts: NA
Location:  41.49°N, 120.54°W
Report Text: KAAT 011155Z AUTO 34007KT 8SM -RA OVC020 04/02 A2966 RMK AO2 SLP040 P0005 60014 70048 T00390022 10056 20039 55002
Loading
Personal Weather Stations






























Interactive Weather Map
Tropical Storm Tracking
New forecast layout! Learn more

10-Day Weather Forecast

Advertisements
Track Severe Weather on mobile